sensor_id;sensor_type;location;lat;lon;timestamp;pressure;altitude;pressure_sealevel;temperature;humidity
45078;BME280;60508;42.622;25.416;2024-02-15T00:01:47;97032.22;;;6.14;57.64
45078;BME280;60508;42.622;25.416;2024-02-15T00:04:14;97019.69;;;6.14;57.84
45078;BME280;60508;42.622;25.416;2024-02-15T00:07:00;97028.09;;;6.11;57.70
45078;BME280;60508;42.622;25.416;2024-02-15T00:09:28;97014.81;;;5.98;58.16
45078;BME280;60508;42.622;25.416;2024-02-15T00:11:56;97019.06;;;5.92;57.79
45078;BME280;60508;42.622;25.416;2024-02-15T00:14:22;97022.78;;;5.91;57.88
45078;BME280;60508;42.622;25.416;2024-02-15T00:17:09;97023.63;;;5.85;58.73
45078;BME280;60508;42.622;25.416;2024-02-15T00:19:37;97034.09;;;5.80;58.93
45078;BME280;60508;42.622;25.416;2024-02-15T00:22:25;97023.00;;;5.83;58.43
45078;BME280;60508;42.622;25.416;2024-02-15T00:24:52;97025.88;;;5.75;59.04
45078;BME280;60508;42.622;25.416;2024-02-15T00:27:39;97028.53;;;5.75;58.86
45078;BME280;60508;42.622;25.416;2024-02-15T00:30:08;97029.97;;;5.77;58.97
45078;BME280;60508;42.622;25.416;2024-02-15T00:32:34;97046.19;;;5.76;58.88
45078;BME280;60508;42.622;25.416;2024-02-15T00:35:04;97030.78;;;5.71;59.11
45078;BME280;60508;42.622;25.416;2024-02-15T00:37:35;97039.00;;;5.83;59.14
45078;BME280;60508;42.622;25.416;2024-02-15T00:40:02;97031.63;;;5.85;58.85
45078;BME280;60508;42.622;25.416;2024-02-15T00:42:51;97035.50;;;5.82;58.75
45078;BME280;60508;42.622;25.416;2024-02-15T00:45:18;97032.22;;;5.80;59.14
45078;BME280;60508;42.622;25.416;2024-02-15T00:48:04;97019.31;;;5.77;58.95
45078;BME280;60508;42.622;25.416;2024-02-15T00:50:33;97027.13;;;5.72;59.48
45078;BME280;60508;42.622;25.416;2024-02-15T00:53:19;97042.09;;;5.80;59.31
45078;BME280;60508;42.622;25.416;2024-02-15T00:55:46;97030.38;;;5.81;59.04
45078;BME280;60508;42.622;25.416;2024-02-15T00:58:12;97028.97;;;5.78;59.58
45078;BME280;60508;42.622;25.416;2024-02-15T01:00:39;97027.50;;;5.82;59.47
45078;BME280;60508;42.622;25.416;2024-02-15T01:03:05;97029.56;;;5.87;59.23
45078;BME280;60508;42.622;25.416;2024-02-15T01:05:52;97028.97;;;5.78;59.16
45078;BME280;60508;42.622;25.416;2024-02-15T01:08:18;97022.59;;;5.99;58.54
45078;BME280;60508;42.622;25.416;2024-02-15T01:11:07;97018.47;;;6.17;58.54
45078;BME280;60508;42.622;25.416;2024-02-15T01:13:33;97035.09;;;6.06;58.63
45078;BME280;60508;42.622;25.416;2024-02-15T01:16:00;97037.78;;;6.06;58.77
45078;BME280;60508;42.622;25.416;2024-02-15T01:18:49;97035.91;;;6.06;58.52
45078;BME280;60508;42.622;25.416;2024-02-15T01:21:15;97037.34;;;6.15;58.11
45078;BME280;60508;42.622;25.416;2024-02-15T01:23:42;97039.59;;;6.25;58.20
45078;BME280;60508;42.622;25.416;2024-02-15T01:26:10;97032.19;;;6.20;58.24
45078;BME280;60508;42.622;25.416;2024-02-15T01:28:59;97029.69;;;6.32;57.79
45078;BME280;60508;42.622;25.416;2024-02-15T01:31:25;97030.09;;;6.36;57.41
45078;BME280;60508;42.622;25.416;2024-02-15T01:33:51;97045.13;;;6.24;58.01
45078;BME280;60508;42.622;25.416;2024-02-15T01:36:38;97033.38;;;6.31;57.78
45078;BME280;60508;42.622;25.416;2024-02-15T01:39:04;97027.59;;;6.41;57.48
45078;BME280;60508;42.622;25.416;2024-02-15T01:41:30;97026.03;;;6.27;57.46
45078;BME280;60508;42.622;25.416;2024-02-15T01:43:57;97030.53;;;6.19;57.79
45078;BME280;60508;42.622;25.416;2024-02-15T01:46:44;97018.44;;;6.24;57.98
45078;BME280;60508;42.622;25.416;2024-02-15T01:49:12;97036.91;;;6.18;57.69
45078;BME280;60508;42.622;25.416;2024-02-15T01:52:00;97032.00;;;5.95;58.70
45078;BME280;60508;42.622;25.416;2024-02-15T01:54:28;97043.69;;;5.88;59.07
45078;BME280;60508;42.622;25.416;2024-02-15T01:56:55;97037.16;;;5.83;59.46
45078;BME280;60508;42.622;25.416;2024-02-15T01:59:22;97031.00;;;5.96;58.85
45078;BME280;60508;42.622;25.416;2024-02-15T02:01:49;97048.41;;;5.92;59.23
45078;BME280;60508;42.622;25.416;2024-02-15T02:04:16;97035.91;;;5.93;59.14
45078;BME280;60508;42.622;25.416;2024-02-15T02:06:42;97034.47;;;5.90;59.70
45078;BME280;60508;42.622;25.416;2024-02-15T02:09:29;97031.41;;;5.87;59.60
45078;BME280;60508;42.622;25.416;2024-02-15T02:11:55;97029.94;;;5.91;59.31
45078;BME280;60508;42.622;25.416;2024-02-15T02:14:21;97036.94;;;5.85;59.35
45078;BME280;60508;42.622;25.416;2024-02-15T02:17:14;97032.00;;;5.89;59.17
45078;BME280;60508;42.622;25.416;2024-02-15T02:19:41;97030.56;;;5.79;59.14
45078;BME280;60508;42.622;25.416;2024-02-15T02:22:09;97035.31;;;5.71;59.96
45078;BME280;60508;42.622;25.416;2024-02-15T02:25:01;97015.41;;;5.60;60.00
45078;BME280;60508;42.622;25.416;2024-02-15T02:27:32;97027.75;;;5.61;59.83
45078;BME280;60508;42.622;25.416;2024-02-15T02:29:58;97048.03;;;5.55;60.28
45078;BME280;60508;42.622;25.416;2024-02-15T02:32:26;97035.53;;;5.62;59.96
45078;BME280;60508;42.622;25.416;2024-02-15T02:34:53;97039.19;;;5.68;59.60
45078;BME280;60508;42.622;25.416;2024-02-15T02:37:24;97049.06;;;5.67;59.63
45078;BME280;60508;42.622;25.416;2024-02-15T02:39:50;97050.91;;;5.80;59.42
45078;BME280;60508;42.622;25.416;2024-02-15T02:42:49;97043.09;;;5.72;59.57
45078;BME280;60508;42.622;25.416;2024-02-15T02:45:18;97059.72;;;5.47;60.71
45078;BME280;60508;42.622;25.416;2024-02-15T02:47:46;97062.59;;;5.46;60.79
45078;BME280;60508;42.622;25.416;2024-02-15T02:50:15;97063.00;;;5.43;60.74
45078;BME280;60508;42.622;25.416;2024-02-15T02:53:02;97069.13;;;5.43;61.20
45078;BME280;60508;42.622;25.416;2024-02-15T02:55:28;97057.47;;;5.51;60.65
45078;BME280;60508;42.622;25.416;2024-02-15T02:58:15;97070.16;;;5.42;60.89
45078;BME280;60508;42.622;25.416;2024-02-15T03:00:43;97063.19;;;5.35;61.09
45078;BME280;60508;42.622;25.416;2024-02-15T03:03:14;97078.78;;;5.38;61.44
45078;BME280;60508;42.622;25.416;2024-02-15T03:05:51;97087.38;;;5.33;61.71
45078;BME280;60508;42.622;25.416;2024-02-15T03:08:18;97082.44;;;5.30;61.58
45078;BME280;60508;42.622;25.416;2024-02-15T03:10:44;97085.91;;;5.24;62.14
45078;BME280;60508;42.622;25.416;2024-02-15T03:13:10;97083.66;;;5.21;62.17
45078;BME280;60508;42.622;25.416;2024-02-15T03:15:58;97089.16;;;5.06;63.14
45078;BME280;60508;42.622;25.416;2024-02-15T03:18:25;97088.75;;;5.02;62.92
45078;BME280;60508;42.622;25.416;2024-02-15T03:20:51;97094.41;;;4.92;63.32
45078;BME280;60508;42.622;25.416;2024-02-15T03:23:18;97095.06;;;5.01;62.89
45078;BME280;60508;42.622;25.416;2024-02-15T03:26:07;97090.34;;;4.97;63.59
45078;BME280;60508;42.622;25.416;2024-02-15T03:28:34;97103.25;;;4.93;63.52
45078;BME280;60508;42.622;25.416;2024-02-15T03:31:03;97094.88;;;5.03;63.40
45078;BME280;60508;42.622;25.416;2024-02-15T03:33:31;97089.56;;;5.09;63.52
45078;BME280;60508;42.622;25.416;2024-02-15T03:36:21;97096.94;;;5.07;63.49
45078;BME280;60508;42.622;25.416;2024-02-15T03:38:47;97090.38;;;5.03;63.71
45078;BME280;60508;42.622;25.416;2024-02-15T03:41:34;97084.81;;;4.91;64.53
45078;BME280;60508;42.622;25.416;2024-02-15T03:44:00;97083.53;;;4.87;64.63
45078;BME280;60508;42.622;25.416;2024-02-15T03:46:27;97087.88;;;4.95;64.87
45078;BME280;60508;42.622;25.416;2024-02-15T03:48:53;97089.34;;;5.04;63.92
45078;BME280;60508;42.622;25.416;2024-02-15T03:51:22;97081.53;;;4.89;64.53
45078;BME280;60508;42.622;25.416;2024-02-15T03:53:50;97088.06;;;4.93;64.38
45078;BME280;60508;42.622;25.416;2024-02-15T03:56:50;97094.41;;;4.92;64.22
45078;BME280;60508;42.622;25.416;2024-02-15T03:59:21;97083.75;;;4.92;63.64
45078;BME280;60508;42.622;25.416;2024-02-15T04:02:11;97081.94;;;4.86;63.99
45078;BME280;60508;42.622;25.416;2024-02-15T04:04:40;97084.56;;;4.80;64.56
45078;BME280;60508;42.622;25.416;2024-02-15T04:07:33;97090.28;;;4.77;65.13
45078;BME280;60508;42.622;25.416;2024-02-15T04:09:59;97086.59;;;4.84;64.76
45078;BME280;60508;42.622;25.416;2024-02-15T04:12:47;97079.47;;;4.85;64.30
45078;BME280;60508;42.622;25.416;2024-02-15T04:15:13;97077.59;;;4.79;64.51
45078;BME280;60508;42.622;25.416;2024-02-15T04:18:03;97062.84;;;4.83;64.86
45078;BME280;60508;42.622;25.416;2024-02-15T04:20:29;97067.34;;;4.75;65.22
45078;BME280;60508;42.622;25.416;2024-02-15T04:22:56;97076.56;;;4.80;64.44
45078;BME280;60508;42.622;25.416;2024-02-15T04:25:25;97054.25;;;4.81;64.26
45078;BME280;60508;42.622;25.416;2024-02-15T04:27:53;97065.88;;;4.73;64.58
45078;BME280;60508;42.622;25.416;2024-02-15T04:30:20;97070.97;;;4.68;64.69
45078;BME280;60508;42.622;25.416;2024-02-15T04:32:49;97060.13;;;4.69;64.99
45078;BME280;60508;42.622;25.416;2024-02-15T04:35:37;97064.66;;;4.69;64.97
45078;BME280;60508;42.622;25.416;2024-02-15T04:38:04;97047.91;;;4.82;64.34
45078;BME280;60508;42.622;25.416;2024-02-15T04:40:30;97047.53;;;4.98;63.84
45078;BME280;60508;42.622;25.416;2024-02-15T04:43:16;97057.78;;;5.01;63.66
45078;BME280;60508;42.622;25.416;2024-02-15T04:45:44;97047.97;;;5.08;63.41
45078;BME280;60508;42.622;25.416;2024-02-15T04:48:11;97062.31;;;5.07;63.89
45078;BME280;60508;42.622;25.416;2024-02-15T04:50:40;97061.69;;;5.05;63.99
45078;BME280;60508;42.622;25.416;2024-02-15T04:53:29;97076.47;;;5.15;63.58
45078;BME280;60508;42.622;25.416;2024-02-15T04:55:56;97079.53;;;5.18;63.16
45078;BME280;60508;42.622;25.416;2024-02-15T04:58:43;97083.66;;;5.27;63.54
45078;BME280;60508;42.622;25.416;2024-02-15T05:01:14;97094.53;;;5.33;62.68
45078;BME280;60508;42.622;25.416;2024-02-15T05:04:01;97087.16;;;5.35;62.90
45078;BME280;60508;42.622;25.416;2024-02-15T05:06:33;97092.31;;;5.43;62.18
45078;BME280;60508;42.622;25.416;2024-02-15T05:08:59;97103.97;;;5.42;62.25
45078;BME280;60508;42.622;25.416;2024-02-15T05:11:26;97100.31;;;5.49;62.29
45078;BME280;60508;42.622;25.416;2024-02-15T05:13:52;97098.06;;;5.53;61.74
45078;BME280;60508;42.622;25.416;2024-02-15T05:16:18;97101.13;;;5.43;61.91
45078;BME280;60508;42.622;25.416;2024-02-15T05:19:05;97100.50;;;5.41;61.73
45078;BME280;60508;42.622;25.416;2024-02-15T05:21:33;97108.22;;;5.16;62.95
45078;BME280;60508;42.622;25.416;2024-02-15T05:24:20;97101.31;;;5.35;62.17
45078;BME280;60508;42.622;25.416;2024-02-15T05:26:46;97098.66;;;5.48;61.56
45078;BME280;60508;42.622;25.416;2024-02-15T05:29:36;97103.97;;;5.48;61.51
45078;BME280;60508;42.622;25.416;2024-02-15T05:32:03;97098.81;;;5.20;62.56
45078;BME280;60508;42.622;25.416;2024-02-15T05:34:29;97093.50;;;5.27;62.14
45078;BME280;60508;42.622;25.416;2024-02-15T05:36:56;97118.91;;;5.23;62.09
45078;BME280;60508;42.622;25.416;2024-02-15T05:39:42;97108.88;;;5.25;62.16
45078;BME280;60508;42.622;25.416;2024-02-15T05:42:15;97104.56;;;5.24;61.85
45078;BME280;60508;42.622;25.416;2024-02-15T05:45:28;97098.22;;;5.32;62.34
45078;BME280;60508;42.622;25.416;2024-02-15T05:47:59;97118.09;;;5.36;62.08
45078;BME280;60508;42.622;25.416;2024-02-15T05:50:46;97111.97;;;5.35;61.99
45078;BME280;60508;42.622;25.416;2024-02-15T05:53:12;97112.19;;;5.40;61.95
45078;BME280;60508;42.622;25.416;2024-02-15T05:55:39;97114.44;;;5.37;61.75
45078;BME280;60508;42.622;25.416;2024-02-15T05:58:10;97125.31;;;5.48;61.51
45078;BME280;60508;42.622;25.416;2024-02-15T06:00:37;97124.22;;;5.29;61.95
45078;BME280;60508;42.622;25.416;2024-02-15T06:03:04;97123.22;;;5.37;61.48
45078;BME280;60508;42.622;25.416;2024-02-15T06:05:55;97130.44;;;5.63;61.13
45078;BME280;60508;42.622;25.416;2024-02-15T06:08:25;97134.38;;;5.81;60.12
45078;BME280;60508;42.622;25.416;2024-02-15T06:10:52;97134.16;;;5.89;59.50
45078;BME280;60508;42.622;25.416;2024-02-15T06:13:24;97135.84;;;5.97;59.57
45078;BME280;60508;42.622;25.416;2024-02-15T06:16:14;97149.59;;;6.27;58.43
45078;BME280;60508;42.622;25.416;2024-02-15T06:18:40;97142.41;;;6.21;58.15
45078;BME280;60508;42.622;25.416;2024-02-15T06:21:06;97151.84;;;6.10;58.80
45078;BME280;60508;42.622;25.416;2024-02-15T06:23:33;97157.75;;;6.46;57.48
45078;BME280;60508;42.622;25.416;2024-02-15T06:26:19;97143.00;;;6.43;57.48
45078;BME280;60508;42.622;25.416;2024-02-15T06:28:47;97167.59;;;6.65;57.38
45078;BME280;60508;42.622;25.416;2024-02-15T06:31:31;97156.97;;;7.17;55.51
45078;BME280;60508;42.622;25.416;2024-02-15T06:34:37;97147.53;;;7.53;54.08
45078;BME280;60508;42.622;25.416;2024-02-15T06:37:38;97152.22;;;7.58;53.67
45078;BME280;60508;42.622;25.416;2024-02-15T06:40:43;97141.28;;;7.66;52.99
45078;BME280;60508;42.622;25.416;2024-02-15T06:43:10;97157.00;;;7.49;53.59
45078;BME280;60508;42.622;25.416;2024-02-15T06:45:58;97159.56;;;7.69;53.89
45078;BME280;60508;42.622;25.416;2024-02-15T06:48:24;97156.38;;;7.85;53.21
45078;BME280;60508;42.622;25.416;2024-02-15T06:51:15;97160.03;;;8.16;52.03
45078;BME280;60508;42.622;25.416;2024-02-15T06:53:41;97163.38;;;8.37;51.90
45078;BME280;60508;42.622;25.416;2024-02-15T06:56:11;97163.22;;;8.57;51.07
45078;BME280;60508;42.622;25.416;2024-02-15T06:58:57;97168.28;;;8.65;50.60
45078;BME280;60508;42.622;25.416;2024-02-15T07:01:24;97183.91;;;8.18;52.01
45078;BME280;60508;42.622;25.416;2024-02-15T07:03:51;97175.25;;;8.22;51.74
45078;BME280;60508;42.622;25.416;2024-02-15T07:06:17;97154.28;;;8.38;51.45
45078;BME280;60508;42.622;25.416;2024-02-15T07:09:05;97167.34;;;8.02;51.35
45078;BME280;60508;42.622;25.416;2024-02-15T07:11:32;97160.91;;;7.53;53.28
45078;BME280;60508;42.622;25.416;2024-02-15T07:14:20;97170.41;;;7.42;53.35
45078;BME280;60508;42.622;25.416;2024-02-15T07:16:47;97179.91;;;7.70;53.50
45078;BME280;60508;42.622;25.416;2024-02-15T07:19:15;97181.78;;;8.27;51.51
45078;BME280;60508;42.622;25.416;2024-02-15T07:21:42;97179.69;;;8.03;51.65
45078;BME280;60508;42.622;25.416;2024-02-15T07:24:08;97174.06;;;7.86;52.47
45078;BME280;60508;42.622;25.416;2024-02-15T07:26:35;97169.16;;;7.83;52.47
45078;BME280;60508;42.622;25.416;2024-02-15T07:29:23;97187.34;;;8.00;52.36
45078;BME280;60508;42.622;25.416;2024-02-15T07:31:50;97177.03;;;8.54;51.17
45078;BME280;60508;42.622;25.416;2024-02-15T07:34:37;97173.56;;;8.72;50.08
45078;BME280;60508;42.622;25.416;2024-02-15T07:37:03;97175.94;;;8.36;50.40
45078;BME280;60508;42.622;25.416;2024-02-15T07:39:29;97183.38;;;8.34;50.15
45078;BME280;60508;42.622;25.416;2024-02-15T07:41:56;97181.47;;;8.16;50.95
45078;BME280;60508;42.622;25.416;2024-02-15T07:44:25;97179.38;;;8.18;51.22
45078;BME280;60508;42.622;25.416;2024-02-15T07:47:16;97174.31;;;8.35;50.71
45078;BME280;60508;42.622;25.416;2024-02-15T07:49:46;97178.53;;;7.93;52.04
45078;BME280;60508;42.622;25.416;2024-02-15T07:52:12;97173.31;;;8.30;50.96
45078;BME280;60508;42.622;25.416;2024-02-15T07:54:39;97171.91;;;8.52;50.71
45078;BME280;60508;42.622;25.416;2024-02-15T07:57:25;97173.03;;;8.38;51.28
45078;BME280;60508;42.622;25.416;2024-02-15T07:59:52;97183.88;;;8.25;51.60
45078;BME280;60508;42.622;25.416;2024-02-15T08:02:19;97176.75;;;8.62;51.02
45078;BME280;60508;42.622;25.416;2024-02-15T08:05:11;97172.97;;;8.51;50.52
45078;BME280;60508;42.622;25.416;2024-02-15T08:07:42;97172.59;;;8.41;49.83
45078;BME280;60508;42.622;25.416;2024-02-15T08:10:30;97163.66;;;8.54;50.31
45078;BME280;60508;42.622;25.416;2024-02-15T08:12:57;97167.78;;;8.93;48.11
45078;BME280;60508;42.622;25.416;2024-02-15T08:15:24;97167.88;;;8.87;48.47
45078;BME280;60508;42.622;25.416;2024-02-15T08:18:13;97174.13;;;9.18;47.27
45078;BME280;60508;42.622;25.416;2024-02-15T08:20:39;97173.53;;;8.97;48.27
45078;BME280;60508;42.622;25.416;2024-02-15T08:23:06;97175.06;;;8.68;49.05
45078;BME280;60508;42.622;25.416;2024-02-15T08:25:32;97171.81;;;8.84;50.05
45078;BME280;60508;42.622;25.416;2024-02-15T08:27:59;97169.63;;;8.56;50.78
45078;BME280;60508;42.622;25.416;2024-02-15T08:30:31;97174.94;;;8.05;51.88
45078;BME280;60508;42.622;25.416;2024-02-15T08:32:57;97179.00;;;8.15;51.60
45078;BME280;60508;42.622;25.416;2024-02-15T08:35:44;97178.06;;;8.28;51.30
45078;BME280;60508;42.622;25.416;2024-02-15T08:38:10;97172.81;;;7.89;51.94
45078;BME280;60508;42.622;25.416;2024-02-15T08:40:37;97175.53;;;7.82;52.64
45078;BME280;60508;42.622;25.416;2024-02-15T08:43:23;97184.16;;;8.41;51.10
45078;BME280;60508;42.622;25.416;2024-02-15T08:45:49;97182.75;;;8.07;51.72
45078;BME280;60508;42.622;25.416;2024-02-15T08:48:16;97178.38;;;8.45;51.23
45078;BME280;60508;42.622;25.416;2024-02-15T08:50:43;97180.59;;;8.22;51.64
45078;BME280;60508;42.622;25.416;2024-02-15T08:53:31;97171.19;;;9.01;48.91
45078;BME280;60508;42.622;25.416;2024-02-15T08:55:58;97174.25;;;9.04;48.96
45078;BME280;60508;42.622;25.416;2024-02-15T08:58:25;97168.59;;;9.31;48.01
45078;BME280;60508;42.622;25.416;2024-02-15T09:00:52;97168.81;;;10.80;44.41
45078;BME280;60508;42.622;25.416;2024-02-15T09:03:20;97172.84;;;11.58;42.76
45078;BME280;60508;42.622;25.416;2024-02-15T09:05:46;97175.06;;;11.61;41.91
45078;BME280;60508;42.622;25.416;2024-02-15T09:08:33;97174.88;;;11.39;42.54
45078;BME280;60508;42.622;25.416;2024-02-15T09:11:00;97181.19;;;12.02;41.16
45078;BME280;60508;42.622;25.416;2024-02-15T09:13:26;97177.41;;;12.88;39.91
45078;BME280;60508;42.622;25.416;2024-02-15T09:15:52;97180.34;;;12.65;38.96
45078;BME280;60508;42.622;25.416;2024-02-15T09:18:39;97190.22;;;12.42;39.18
45078;BME280;60508;42.622;25.416;2024-02-15T09:21:11;97181.25;;;11.21;42.88
45078;BME280;60508;42.622;25.416;2024-02-15T09:23:37;97177.16;;;11.88;42.53
45078;BME280;60508;42.622;25.416;2024-02-15T09:26:05;97177.53;;;11.10;43.58
45078;BME280;60508;42.622;25.416;2024-02-15T09:28:51;97185.19;;;11.42;42.40
45078;BME280;60508;42.622;25.416;2024-02-15T09:31:19;97187.91;;;11.88;41.22
45078;BME280;60508;42.622;25.416;2024-02-15T09:34:06;97173.66;;;12.89;39.63
45078;BME280;60508;42.622;25.416;2024-02-15T09:36:36;97178.59;;;13.81;37.99
45078;BME280;60508;42.622;25.416;2024-02-15T09:39:05;97177.56;;;15.37;35.99
45078;BME280;60508;42.622;25.416;2024-02-15T09:41:32;97174.25;;;14.39;36.07
45078;BME280;60508;42.622;25.416;2024-02-15T09:44:20;97177.88;;;13.41;37.71
45078;BME280;60508;42.622;25.416;2024-02-15T09:46:51;97176.38;;;12.04;40.41
45078;BME280;60508;42.622;25.416;2024-02-15T09:49:20;97171.41;;;12.64;39.73
45078;BME280;60508;42.622;25.416;2024-02-15T09:51:48;97163.81;;;12.27;40.00
45078;BME280;60508;42.622;25.416;2024-02-15T09:54:15;97172.91;;;12.38;40.33
45078;BME280;60508;42.622;25.416;2024-02-15T09:56:51;97156.19;;;13.14;38.64
45078;BME280;60508;42.622;25.416;2024-02-15T09:59:19;97155.34;;;14.07;37.46
45078;BME280;60508;42.622;25.416;2024-02-15T10:02:06;97165.94;;;12.59;38.18
45078;BME280;60508;42.622;25.416;2024-02-15T10:04:38;97154.03;;;13.33;38.22
45078;BME280;60508;42.622;25.416;2024-02-15T10:07:25;97147.56;;;13.34;37.69
45078;BME280;60508;42.622;25.416;2024-02-15T10:09:54;97146.78;;;15.64;35.24
45078;BME280;60508;42.622;25.416;2024-02-15T10:12:20;97156.38;;;15.19;35.37
45078;BME280;60508;42.622;25.416;2024-02-15T10:15:07;97155.41;;;14.87;36.17
45078;BME280;60508;42.622;25.416;2024-02-15T10:17:35;97153.38;;;14.67;36.21
45078;BME280;60508;42.622;25.416;2024-02-15T10:20:22;97162.72;;;14.54;35.83
45078;BME280;60508;42.622;25.416;2024-02-15T10:23:13;97147.41;;;13.24;37.50
45078;BME280;60508;42.622;25.416;2024-02-15T10:26:00;97141.38;;;13.88;36.46
45078;BME280;60508;42.622;25.416;2024-02-15T10:29:09;97148.56;;;13.77;36.43
45078;BME280;60508;42.622;25.416;2024-02-15T10:31:58;97146.50;;;14.17;36.19
45078;BME280;60508;42.622;25.416;2024-02-15T10:34:28;97140.81;;;13.86;36.25
45078;BME280;60508;42.622;25.416;2024-02-15T10:36:55;97141.22;;;15.23;34.43
45078;BME280;60508;42.622;25.416;2024-02-15T10:39:24;97132.13;;;17.14;31.80
45078;BME280;60508;42.622;25.416;2024-02-15T10:42:13;97130.13;;;17.95;29.29
45078;BME280;60508;42.622;25.416;2024-02-15T10:44:45;97133.25;;;18.47;29.33
45078;BME280;60508;42.622;25.416;2024-02-15T10:47:37;97130.91;;;16.24;32.49
45078;BME280;60508;42.622;25.416;2024-02-15T10:50:11;97141.28;;;15.38;33.09
45078;BME280;60508;42.622;25.416;2024-02-15T10:53:07;97128.88;;;15.47;33.73
45078;BME280;60508;42.622;25.416;2024-02-15T10:55:53;97132.44;;;14.95;33.86
45078;BME280;60508;42.622;25.416;2024-02-15T10:58:50;97127.06;;;16.71;32.33
45078;BME280;60508;42.622;25.416;2024-02-15T11:01:17;97124.97;;;17.39;30.90
45078;BME280;60508;42.622;25.416;2024-02-15T11:03:51;97119.25;;;16.29;32.73
45078;BME280;60508;42.622;25.416;2024-02-15T11:06:24;97122.53;;;17.87;29.26
45078;BME280;60508;42.622;25.416;2024-02-15T11:08:53;97122.13;;;18.43;29.24
45078;BME280;60508;42.622;25.416;2024-02-15T11:11:20;97110.81;;;17.47;30.52
45078;BME280;60508;42.622;25.416;2024-02-15T11:13:47;97110.00;;;18.31;29.45
45078;BME280;60508;42.622;25.416;2024-02-15T11:16:39;97119.13;;;17.11;30.62
45078;BME280;60508;42.622;25.416;2024-02-15T11:19:06;97117.59;;;16.64;31.49
45078;BME280;60508;42.622;25.416;2024-02-15T11:21:54;97115.22;;;17.38;30.78
45078;BME280;60508;42.622;25.416;2024-02-15T11:24:28;97113.28;;;16.11;31.81
45078;BME280;60508;42.622;25.416;2024-02-15T11:26:59;97120.06;;;16.14;32.11
45078;BME280;60508;42.622;25.416;2024-02-15T11:29:50;97109.88;;;18.46;29.28
45078;BME280;60508;42.622;25.416;2024-02-15T11:35:14;97097.88;;;17.28;30.01
45078;BME280;60508;42.622;25.416;2024-02-15T11:40:28;97120.59;;;16.47;31.42
45078;BME280;60508;42.622;25.416;2024-02-15T11:46:17;97101.09;;;16.19;31.39
45078;BME280;60508;42.622;25.416;2024-02-15T11:49:15;97114.06;;;18.63;28.15
45078;BME280;60508;42.622;25.416;2024-02-15T11:51:46;97111.22;;;20.21;26.28
45078;BME280;60508;42.622;25.416;2024-02-15T11:54:20;97093.97;;;21.70;25.04
45078;BME280;60508;42.622;25.416;2024-02-15T11:56:50;97094.84;;;22.38;23.69
45078;BME280;60508;42.622;25.416;2024-02-15T11:59:58;97101.13;;;19.46;26.50
45078;BME280;60508;42.622;25.416;2024-02-15T12:03:00;97099.56;;;20.35;26.16
45078;BME280;60508;42.622;25.416;2024-02-15T12:06:06;97098.34;;;22.30;24.19
45078;BME280;60508;42.622;25.416;2024-02-15T12:08:53;97083.75;;;22.21;24.12
45078;BME280;60508;42.622;25.416;2024-02-15T12:11:58;97098.84;;;22.95;22.96
45078;BME280;60508;42.622;25.416;2024-02-15T12:14:43;97091.41;;;20.82;24.57
45078;BME280;60508;42.622;25.416;2024-02-15T12:17:28;97103.38;;;21.64;24.31
45078;BME280;60508;42.622;25.416;2024-02-15T12:20:13;97092.81;;;20.13;25.70
45078;BME280;60508;42.622;25.416;2024-02-15T12:22:43;97096.53;;;21.39;24.33
45078;BME280;60508;42.622;25.416;2024-02-15T12:25:16;97099.06;;;20.79;24.70
45078;BME280;60508;42.622;25.416;2024-02-15T12:27:44;97100.22;;;20.59;25.29
45078;BME280;60508;42.622;25.416;2024-02-15T12:30:34;97099.25;;;20.69;25.03
45078;BME280;60508;42.622;25.416;2024-02-15T12:33:10;97096.50;;;21.66;23.79
45078;BME280;60508;42.622;25.416;2024-02-15T12:36:07;97100.16;;;20.65;24.77
45078;BME280;60508;42.622;25.416;2024-02-15T12:38:34;97100.00;;;21.30;24.69
45078;BME280;60508;42.622;25.416;2024-02-15T12:41:23;97101.88;;;17.86;27.94
45078;BME280;60508;42.622;25.416;2024-02-15T12:43:53;97101.63;;;15.85;31.71
45078;BME280;60508;42.622;25.416;2024-02-15T12:46:39;97095.00;;;17.04;30.00
45078;BME280;60508;42.622;25.416;2024-02-15T12:49:27;97098.34;;;17.85;28.66
45078;BME280;60508;42.622;25.416;2024-02-15T12:52:33;97107.56;;;14.93;32.58
45078;BME280;60508;42.622;25.416;2024-02-15T12:55:09;97113.09;;;14.66;33.51
45078;BME280;60508;42.622;25.416;2024-02-15T12:57:56;97099.72;;;15.85;32.21
45078;BME280;60508;42.622;25.416;2024-02-15T13:00:25;97112.78;;;15.10;33.44
45078;BME280;60508;42.622;25.416;2024-02-15T13:03:15;97104.47;;;17.07;31.07
45078;BME280;60508;42.622;25.416;2024-02-15T13:05:42;97106.22;;;16.46;30.93
45078;BME280;60508;42.622;25.416;2024-02-15T13:08:08;97116.00;;;16.52;30.77
45078;BME280;60508;42.622;25.416;2024-02-15T13:10:39;97107.66;;;15.13;33.08
45078;BME280;60508;42.622;25.416;2024-02-15T13:13:26;97105.97;;;14.17;35.37
45078;BME280;60508;42.622;25.416;2024-02-15T13:15:53;97106.09;;;15.38;33.50
45078;BME280;60508;42.622;25.416;2024-02-15T13:18:20;97112.59;;;14.74;34.63
45078;BME280;60508;42.622;25.416;2024-02-15T13:20:47;97116.09;;;13.99;35.66
45078;BME280;60508;42.622;25.416;2024-02-15T13:23:38;97104.44;;;13.66;35.90
45078;BME280;60508;42.622;25.416;2024-02-15T13:26:05;97112.16;;;13.85;35.69
45078;BME280;60508;42.622;25.416;2024-02-15T13:28:54;97118.72;;;13.62;36.79
45078;BME280;60508;42.622;25.416;2024-02-15T13:31:21;97123.44;;;13.49;36.32
45078;BME280;60508;42.622;25.416;2024-02-15T13:34:09;97104.72;;;13.21;36.62
45078;BME280;60508;42.622;25.416;2024-02-15T13:36:37;97111.28;;;12.64;38.23
45078;BME280;60508;42.622;25.416;2024-02-15T13:39:04;97125.69;;;12.52;37.49
45078;BME280;60508;42.622;25.416;2024-02-15T13:41:31;97127.69;;;13.23;36.94
45078;BME280;60508;42.622;25.416;2024-02-15T13:43:57;97111.66;;;13.11;37.17
45078;BME280;60508;42.622;25.416;2024-02-15T13:46:23;97126.84;;;13.67;37.02
45078;BME280;60508;42.622;25.416;2024-02-15T13:49:10;97128.06;;;13.54;36.40